Skip Navigation Links
NOAA logo - Click to go to the NOAA homepage
NOAA's National Weather Service
Alaska Aviation Weather Unit
  NWS logo - Click to go to the NWS homepage
Left Navbar Graphic     21 AKDT = 05 GMT

   
NOAA is celebrating 200 years of science, service, and stewardship. Visit the NOAA 200th celebration Web site to learn more.
USA.gov is the U.S. Government's official Web portal to all Federal, state and local government Web resources and services.
Facebook
NWS on Facebook

AAWU Home :: Display TAF Add Bookmark
METAR PAEL 262302Z VRB05KT 20SM -RA OVC025 12/04 A2948 RMK SPB E03012KT
     MAX 11.6 NOSPECI=

METAR PAEL 270053Z 09008KT 20SM SCT030 OVC050 11/03 A2947 RMK NOSPECI=

METAR PAEL 270259Z 09007KT 20SM BKN050 11/05 A2949 RMK NOSPECI LAST=


NOAA's National Weather Service
Alaska Aviation Weather Unit
6930 Sand Lake Road
Anchorage, AK 99502-1845
Disclaimer
Credits
Glossary
Privacy Policy
About Us
Career Opportunities
Contact AAWU Internet Services Site last modified: April, 17th 2012